Thursday, June 29, 2017, 10:14 AM EDT

KDYL, Doylestown Airport

Location: Doylestown, PA, United States Lat: 40.333
Local Time: 10:14 AM EDT (14:14 GMT) Lon: -75.117
Time Zone: US/Eastern Elev: 393 ft

Show me the last for .
Show Decoded

2017-06-29 09:54 METAR KDYL 291354Z AUTO 22008KT 10SM CLR 23/16 A3014 RMK AO2 SLP202 T02330156 =
2017-06-29 08:54 METAR KDYL 291254Z AUTO 20008KT 10SM CLR 22/16 A3015 RMK AO2 SLP205 T02170156 =
2017-06-29 07:54 METAR KDYL 291154Z AUTO 20003KT 10SM CLR 20/16 A3016 RMK AO2 SLP207 T02000156
                 10200 20161 55000 =
2017-06-29 06:54 METAR KDYL 291054Z AUTO 20003KT 10SM CLR 18/14 A3016 RMK AO2 SLP208 T01830144 =
2017-06-29 05:54 METAR KDYL 290954Z AUTO 16004KT 10SM CLR 17/13 A3015 RMK AO2 SLP206 T01720133 =
2017-06-29 04:54 METAR KDYL 290854Z AUTO 16003KT 10SM CLR 16/13 A3016 RMK AO2 SLP208 T01610133
                 53005 =
2017-06-29 03:54 METAR KDYL 290754Z AUTO 17004KT 10SM CLR 18/13 A3015 RMK AO2 SLP203 T01780128 =
2017-06-29 02:54 METAR KDYL 290654Z AUTO 17004KT 10SM CLR 18/12 A3015 RMK AO2 SLP204 T01830122 =
2017-06-29 01:54 METAR KDYL 290554Z AUTO 19003KT 10SM CLR 18/12 A3014 RMK AO2 SLP203 T01780117
                 10222 20172 53002 =
2017-06-29 00:54 METAR KDYL 290454Z AUTO 19004KT 10SM CLR 18/11 A3014 RMK AO2 SLP202 T01780111
                 402560111 =
2017-06-28 23:54 METAR KDYL 290354Z AUTO 18003KT 10SM CLR 19/11 A3014 RMK AO2 SLP201 T01890106 =
2017-06-28 22:54 METAR KDYL 290254Z AUTO 19003KT 10SM CLR 19/11 A3014 RMK AO2 SLP201 T01940106
                 53009 =
2017-06-28 21:54 METAR KDYL 290154Z AUTO 19003KT 10SM CLR 20/11 A3013 RMK AO2 SLP198 T02000106 =
2017-06-28 20:54 METAR KDYL 290054Z AUTO VRB03KT 10SM CLR 21/10 A3011 RMK AO2 SLP192 T02110100 =
2017-06-28 19:54 METAR KDYL 282354Z AUTO 20003KT 10SM CLR 23/10 A3011 RMK AO2 SLP192 T02280100
                 10256 20222 55005 =
2017-06-28 18:54 METAR KDYL 282254Z AUTO 26005KT 10SM CLR 24/10 A3011 RMK AO2 SLP192 T02440100 =
2017-06-28 17:54 METAR KDYL 282154Z AUTO 23005KT 10SM CLR 25/09 A3011 RMK AO2 SLP193 T02500094 =
2017-06-28 16:54 METAR KDYL 282054Z AUTO VRB05KT 10SM FEW070 SCT080 24/11 A3012 RMK AO2 SLP197
                 T02440106 55004 =
2017-06-28 15:54 METAR KDYL 281954Z AUTO VRB06KT 10SM FEW065 26/11 A3012 RMK AO2 SLP196 T02560106
                 =
2017-06-28 14:54 METAR KDYL 281854Z AUTO 32007KT 10SM SCT065 24/10 A3013 RMK AO2 SLP200 T02440100
                 =
2017-06-28 13:54 METAR KDYL 281754Z AUTO 26008KT 10SM SCT065 24/11 A3013 RMK AO2 SLP201 T02440106
                 10244 20172 58006 =
2017-06-28 12:54 METAR KDYL 281654Z AUTO 31013G17KT 10SM FEW065 24/10 A3016 RMK AO2 SLP210
                 T02390100 =
2017-06-28 11:54 METAR KDYL 281554Z AUTO 24007KT 10SM CLR 23/09 A3015 RMK AO2 SLP207 T02280089 =
2017-06-28 10:54 METAR KDYL 281454Z AUTO 33006KT 10SM CLR 22/10 A3015 RMK AO2 SLP207 T02220100
                 51004 =

Support USWX by starting your Amazon purchase here.